createdAt,value
2018-02-17T00:01:52.010Z,14.13
2018-02-17T00:04:20.143Z,13.62
2018-02-17T00:06:48.242Z,13.75
2018-02-17T00:09:16.324Z,12.48
2018-02-17T00:11:44.671Z,12.02
2018-02-17T00:14:12.875Z,11.82
2018-02-17T00:16:41.041Z,13.32
2018-02-17T00:19:09.164Z,13.85
2018-02-17T00:21:37.363Z,12.95
2018-02-17T00:24:05.385Z,12.35
2018-02-17T00:26:33.581Z,12.85
2018-02-17T00:29:01.574Z,12.98
2018-02-17T00:31:29.732Z,13.02
2018-02-17T00:33:57.796Z,12.60
2018-02-17T00:36:26.023Z,13.45
2018-02-17T00:38:54.042Z,12.82
2018-02-17T00:41:22.102Z,13.38
2018-02-17T00:43:50.102Z,12.77
2018-02-17T00:46:18.382Z,13.88
2018-02-17T00:48:46.517Z,12.63
2018-02-17T00:51:14.829Z,15.35
2018-02-17T00:53:42.950Z,14.15
2018-02-17T00:56:11.189Z,13.77
2018-02-17T00:58:39.472Z,13.18
2018-02-17T01:01:07.590Z,13.52
2018-02-17T01:03:35.647Z,12.80
2018-02-17T01:06:03.716Z,13.48
2018-02-17T01:08:31.919Z,13.30
2018-02-17T01:10:59.920Z,12.45
2018-02-17T01:13:27.981Z,12.60
2018-02-17T01:15:56.022Z,14.48
2018-02-17T01:18:24.024Z,12.63
2018-02-17T01:20:52.070Z,13.07
2018-02-17T01:23:20.243Z,14.40
2018-02-17T01:25:48.337Z,13.13
2018-02-17T01:28:16.543Z,17.27
2018-02-17T01:30:44.736Z,17.12
2018-02-17T01:33:12.979Z,14.05
2018-02-17T01:35:41.074Z,13.07
2018-02-17T01:38:09.326Z,12.65
2018-02-17T01:40:37.275Z,13.82
2018-02-17T01:43:05.457Z,13.50
2018-02-17T01:45:33.516Z,12.10
2018-02-17T01:48:01.546Z,11.63
2018-02-17T01:50:29.613Z,13.18
2018-02-17T01:52:57.820Z,12.65
2018-02-17T01:55:25.910Z,13.65
2018-02-17T01:57:54.175Z,12.40
2018-02-17T02:00:22.303Z,13.02
2018-02-17T02:07:27.760Z,10.88
2018-02-17T02:09:55.966Z,13.88
2018-02-17T02:12:23.988Z,12.98
2018-02-17T02:14:52.047Z,13.98
2018-02-17T02:19:54.054Z,12.37
2018-02-17T02:22:24.474Z,12.20
2018-02-17T02:24:52.509Z,12.93
2018-02-17T02:27:20.800Z,11.48
2018-02-17T02:29:49.034Z,12.60
2018-02-17T02:32:21.555Z,12.50
2018-02-17T02:34:50.274Z,11.20
2018-02-17T02:37:19.601Z,11.43
2018-02-17T02:39:48.362Z,11.38
2018-02-17T02:42:17.522Z,11.27
2018-02-17T02:44:46.442Z,11.65
2018-02-17T02:47:15.800Z,11.63
2018-02-17T02:49:44.156Z,11.50
2018-02-17T02:52:12.859Z,12.27
2018-02-17T02:54:41.460Z,11.95
2018-02-17T02:57:09.861Z,11.70
2018-02-17T02:59:38.358Z,11.25
2018-02-17T03:02:06.558Z,11.50
2018-02-17T03:04:34.871Z,11.90
2018-02-17T03:07:05.408Z,11.73
2018-02-17T03:09:33.546Z,9.82
2018-02-17T03:12:01.687Z,11.65
2018-02-17T03:14:29.857Z,11.85
2018-02-17T03:16:58.041Z,11.18
2018-02-17T03:19:26.469Z,11.80
2018-02-17T03:21:54.778Z,10.90
2018-02-17T03:24:23.168Z,11.10
2018-02-17T03:26:51.671Z,9.77
2018-02-17T03:29:20.588Z,10.90
2018-02-17T03:31:48.983Z,10.90
2018-02-17T03:34:17.693Z,10.02
2018-02-17T03:36:46.298Z,11.32
2018-02-17T03:39:15.650Z,11.12
2018-02-17T03:41:44.109Z,10.60
2018-02-17T03:44:12.519Z,11.10
2018-02-17T03:46:40.824Z,10.60
2018-02-17T03:49:09.162Z,10.32
2018-02-17T03:51:37.397Z,11.30
2018-02-17T03:54:06.107Z,10.82
2018-02-17T03:56:34.396Z,9.88
2018-02-17T03:59:02.661Z,10.60
2018-02-17T04:01:30.820Z,11.05
2018-02-17T04:03:59.115Z,11.27
2018-02-17T04:06:27.116Z,10.65
2018-02-17T04:08:55.581Z,10.25
2018-02-17T04:11:23.684Z,10.98
2018-02-17T04:13:51.872Z,11.25
2018-02-17T04:16:19.974Z,10.65
2018-02-17T04:18:48.259Z,9.40
2018-02-17T04:21:16.433Z,9.00
2018-02-17T04:23:44.822Z,10.90
2018-02-17T04:26:12.961Z,9.50
2018-02-17T04:28:41.884Z,9.57
2018-02-17T04:31:10.054Z,10.50
2018-02-17T04:33:38.335Z,9.40
2018-02-17T04:36:06.435Z,11.12
2018-02-17T04:38:34.684Z,11.52
2018-02-17T04:41:03.027Z,10.68
2018-02-17T04:43:31.223Z,10.35
2018-02-17T04:45:59.340Z,10.52
2018-02-17T04:48:27.744Z,11.18
2018-02-17T04:58:36.949Z,10.95
2018-02-17T05:01:04.984Z,11.05
2018-02-17T05:03:33.197Z,11.00
2018-02-17T05:06:01.211Z,11.90
2018-02-17T05:08:29.316Z,12.77
2018-02-17T05:10:57.410Z,13.52
2018-02-17T05:13:25.666Z,12.05
2018-02-17T05:15:53.786Z,12.70
2018-02-17T05:18:22.096Z,12.10
2018-02-17T05:20:50.257Z,12.18
2018-02-17T05:23:18.890Z,10.80
2018-02-17T05:25:47.088Z,11.27
2018-02-17T05:28:15.609Z,10.57
2018-02-17T05:30:43.782Z,10.90
2018-02-17T05:33:12.070Z,12.50
2018-02-17T05:35:40.026Z,11.82
2018-02-17T05:38:08.164Z,11.90
2018-02-17T05:40:36.495Z,10.98
2018-02-17T05:45:47.866Z,9.82
2018-02-17T05:48:15.983Z,10.38
2018-02-17T05:50:44.166Z,11.32
2018-02-17T05:53:12.308Z,11.27
2018-02-17T05:55:40.262Z,11.98
2018-02-17T05:58:09.355Z,12.30
2018-02-17T06:00:37.652Z,10.68
2018-02-17T06:03:05.661Z,11.23
2018-02-17T06:05:33.918Z,10.95
2018-02-17T06:08:02.026Z,12.43
2018-02-17T06:10:30.209Z,10.90
2018-02-17T06:12:58.462Z,10.18
2018-02-17T06:15:26.820Z,11.52
2018-02-17T06:17:55.212Z,11.52
2018-02-17T06:20:23.606Z,12.40
2018-02-17T06:22:51.760Z,11.38
2018-02-17T06:25:20.294Z,10.73
2018-02-17T06:27:48.695Z,10.93
2018-02-17T06:30:17.196Z,12.10
2018-02-17T06:32:45.255Z,11.65
2018-02-17T06:35:13.255Z,11.70
2018-02-17T06:37:41.460Z,13.77
2018-02-17T06:40:09.774Z,10.90
2018-02-17T06:42:37.774Z,11.77
2018-02-17T06:45:06.020Z,12.52
2018-02-17T06:47:34.118Z,11.95
2018-02-17T06:50:02.347Z,11.52
2018-02-17T06:52:30.413Z,11.65
2018-02-17T06:54:58.954Z,14.60
2018-02-17T06:57:27.333Z,14.05
2018-02-17T06:59:55.566Z,11.02
2018-02-17T07:02:23.932Z,12.02
2018-02-17T07:04:52.262Z,12.02
2018-02-17T07:07:20.354Z,12.40
2018-02-17T07:09:48.657Z,11.25
2018-02-17T07:12:16.750Z,12.13
2018-02-17T07:14:44.878Z,13.43
2018-02-17T07:17:12.898Z,13.55
2018-02-17T07:19:41.027Z,13.93
2018-02-17T07:22:09.009Z,12.25
2018-02-17T07:24:37.284Z,11.60
2018-02-17T07:27:05.329Z,11.25
2018-02-17T07:29:33.603Z,11.20
2018-02-17T07:32:01.753Z,11.57
2018-02-17T07:34:29.920Z,12.30
2018-02-17T07:36:58.069Z,11.93
2018-02-17T07:39:26.212Z,12.80
2018-02-17T07:41:54.388Z,13.20
2018-02-17T07:44:22.740Z,13.10
2018-02-17T07:46:51.741Z,13.55
2018-02-17T07:49:19.929Z,12.77
2018-02-17T07:51:48.003Z,12.35
2018-02-17T07:54:16.161Z,12.52
2018-02-17T07:56:44.181Z,13.23
2018-02-17T07:59:12.258Z,12.23
2018-02-17T08:01:40.376Z,13.32
2018-02-17T08:04:08.414Z,13.45
2018-02-17T08:06:36.412Z,12.32
2018-02-17T08:09:04.461Z,13.10
2018-02-17T08:11:32.567Z,13.45
2018-02-17T08:14:00.605Z,13.10
2018-02-17T08:16:28.902Z,11.60
2018-02-17T08:18:57.099Z,12.95
2018-02-17T08:21:25.312Z,14.50
2018-02-17T08:23:53.492Z,15.02
2018-02-17T08:26:21.563Z,12.27
2018-02-17T08:28:49.543Z,13.98
2018-02-17T08:31:17.665Z,13.73
2018-02-17T08:33:45.733Z,15.93
2018-02-17T08:36:13.877Z,14.02
2018-02-17T08:38:41.889Z,14.52
2018-02-17T08:41:09.951Z,13.82
2018-02-17T08:43:37.914Z,14.77
2018-02-17T08:46:06.028Z,14.10
2018-02-17T08:48:34.228Z,13.85
2018-02-17T08:51:02.443Z,15.20
2018-02-17T08:53:30.525Z,15.82
2018-02-17T08:55:58.688Z,15.45
2018-02-17T08:58:26.753Z,16.30
2018-02-17T09:00:54.886Z,16.95
2018-02-17T09:03:23.090Z,17.92
2018-02-17T09:05:51.158Z,16.08
2018-02-17T09:08:19.101Z,16.15
2018-02-17T09:10:47.177Z,15.48
2018-02-17T09:13:15.156Z,15.05
2018-02-17T09:15:43.261Z,15.10
2018-02-17T09:18:11.239Z,14.23
2018-02-17T09:20:39.320Z,14.68
2018-02-17T09:23:07.288Z,14.55
2018-02-17T09:25:35.431Z,14.13
2018-02-17T09:28:03.715Z,14.70
2018-02-17T09:30:32.026Z,13.77
2018-02-17T09:33:00.225Z,15.00
2018-02-17T09:35:28.412Z,17.55
2018-02-17T09:37:56.818Z,18.50
2018-02-17T09:40:25.113Z,15.82
2018-02-17T09:42:53.193Z,13.68
2018-02-17T09:45:21.246Z,13.68
2018-02-17T09:47:49.473Z,13.68
2018-02-17T09:50:17.694Z,14.13
2018-02-17T09:52:45.777Z,13.25
2018-02-17T09:55:13.982Z,12.57
2018-02-17T09:57:42.055Z,12.85
2018-02-17T10:00:10.262Z,12.82
2018-02-17T10:02:38.755Z,13.85
2018-02-17T10:05:06.943Z,12.98
2018-02-17T10:07:35.358Z,13.45
2018-02-17T10:10:03.739Z,13.35
2018-02-17T10:12:32.898Z,14.82
2018-02-17T10:15:01.102Z,13.75
2018-02-17T10:17:29.358Z,14.27
2018-02-17T10:19:57.753Z,13.88
2018-02-17T10:22:26.053Z,14.85
2018-02-17T10:24:53.973Z,14.63
2018-02-17T10:27:22.136Z,16.15
2018-02-17T10:29:50.336Z,16.70
2018-02-17T10:32:18.518Z,17.90
2018-02-17T10:34:46.675Z,17.60
2018-02-17T10:37:15.014Z,17.75
2018-02-17T10:39:43.222Z,19.30
2018-02-17T10:42:11.501Z,18.80
2018-02-17T10:44:39.805Z,17.70
2018-02-17T10:47:08.098Z,20.45
2018-02-17T10:49:36.398Z,18.75
2018-02-17T10:52:04.598Z,19.60
2018-02-17T10:54:32.736Z,17.85
2018-02-17T10:57:01.056Z,18.95
2018-02-17T10:59:29.276Z,17.98
2018-02-17T11:01:57.576Z,18.75
2018-02-17T11:04:25.697Z,18.90
2018-02-17T11:06:53.782Z,19.60
2018-02-17T11:09:22.064Z,16.90
2018-02-17T11:11:50.243Z,17.67
2018-02-17T11:14:18.448Z,19.62
2018-02-17T11:16:46.624Z,18.87
2018-02-17T11:19:14.739Z,17.52
2018-02-17T11:21:42.918Z,19.33
2018-02-17T11:24:11.009Z,17.95
2018-02-17T11:26:39.295Z,19.40
2018-02-17T11:29:07.533Z,18.40
2018-02-17T11:31:35.799Z,19.42
2018-02-17T11:34:04.105Z,18.80
2018-02-17T11:36:32.298Z,20.05
2018-02-17T11:39:00.494Z,23.48
2018-02-17T11:41:28.790Z,22.85
2018-02-17T11:43:56.880Z,22.48
2018-02-17T11:46:25.074Z,24.30
2018-02-17T11:48:53.171Z,21.60
2018-02-17T11:51:21.146Z,22.73
2018-02-17T11:53:49.244Z,22.40
2018-02-17T11:56:17.433Z,22.80
2018-02-17T11:58:45.633Z,20.97
2018-02-17T12:01:13.927Z,21.97
2018-02-17T12:03:42.121Z,22.67
2018-02-17T12:06:10.429Z,22.20
2018-02-17T12:08:38.730Z,20.90
2018-02-17T12:11:06.912Z,22.15
2018-02-17T12:13:35.099Z,20.30
2018-02-17T12:16:03.201Z,21.65
2018-02-17T12:18:31.298Z,21.25
2018-02-17T12:20:59.489Z,21.73
2018-02-17T12:23:27.573Z,19.85
2018-02-17T12:25:55.675Z,16.30
2018-02-17T12:28:23.891Z,15.75
2018-02-17T12:30:52.049Z,18.45
2018-02-17T12:33:20.252Z,16.52
2018-02-17T12:35:49.687Z,15.77
2018-02-17T12:38:17.874Z,15.82
2018-02-17T12:40:46.069Z,17.33
2018-02-17T12:43:14.253Z,17.20
2018-02-17T12:45:42.350Z,17.45
2018-02-17T12:48:10.440Z,18.05
2018-02-17T12:50:38.533Z,17.87
2018-02-17T12:53:06.828Z,16.95
2018-02-17T12:55:35.130Z,15.10
2018-02-17T12:58:03.428Z,17.85
2018-02-17T13:00:31.521Z,17.05
2018-02-17T13:02:59.802Z,18.50
2018-02-17T13:05:28.022Z,16.73
2018-02-17T13:07:56.145Z,15.48
2018-02-17T13:10:24.428Z,15.48
2018-02-17T13:12:52.525Z,17.30
2018-02-17T13:15:20.665Z,16.40
2018-02-17T13:17:48.737Z,14.30
2018-02-17T13:20:16.875Z,16.80
2018-02-17T13:22:45.056Z,16.50
2018-02-17T13:25:13.243Z,17.08
2018-02-17T13:27:41.455Z,16.92
2018-02-17T13:30:09.636Z,17.42
2018-02-17T13:32:37.832Z,18.02
2018-02-17T13:35:05.870Z,18.75
2018-02-17T13:37:34.137Z,16.70
2018-02-17T13:40:02.224Z,17.65
2018-02-17T13:42:30.410Z,16.62
2018-02-17T13:44:58.602Z,16.83
2018-02-17T13:47:26.806Z,17.75
2018-02-17T13:49:55.005Z,18.08
2018-02-17T13:52:23.192Z,18.10
2018-02-17T13:54:51.284Z,17.92
2018-02-17T13:57:20.181Z,16.42
2018-02-17T13:59:48.320Z,15.52
2018-02-17T14:02:16.476Z,15.93
2018-02-17T14:04:45.694Z,16.80
2018-02-17T14:07:13.995Z,15.82
2018-02-17T14:09:42.288Z,15.80
2018-02-17T14:12:10.580Z,16.83
2018-02-17T14:14:38.685Z,16.00
2018-02-17T14:17:07.016Z,16.67
2018-02-17T14:19:35.260Z,16.23
2018-02-17T14:22:03.383Z,17.17
2018-02-17T14:24:31.566Z,15.13
2018-02-17T14:26:59.757Z,16.02
2018-02-17T14:29:27.895Z,14.35
2018-02-17T14:31:56.284Z,13.70
2018-02-17T14:34:24.258Z,14.10
2018-02-17T14:36:53.568Z,15.05
2018-02-17T14:39:21.740Z,12.35
2018-02-17T14:41:49.940Z,14.77
2018-02-17T14:44:18.039Z,13.15
2018-02-17T14:46:46.342Z,13.18
2018-02-17T14:49:14.717Z,14.55
2018-02-17T14:51:44.037Z,14.65
2018-02-17T14:54:12.348Z,13.02
2018-02-17T14:56:40.438Z,13.65
2018-02-17T14:59:08.635Z,13.77
2018-02-17T15:01:36.935Z,12.93
2018-02-17T15:04:05.119Z,13.77
2018-02-17T15:06:33.361Z,13.05
2018-02-17T15:09:01.506Z,13.18
2018-02-17T15:11:29.617Z,13.57
2018-02-17T15:13:57.800Z,14.20
2018-02-17T15:16:25.879Z,14.15
2018-02-17T15:18:53.997Z,13.60
2018-02-17T15:21:22.076Z,14.73
2018-02-17T15:23:50.162Z,13.45
2018-02-17T15:26:18.178Z,14.23
2018-02-17T15:28:46.441Z,13.85
2018-02-17T15:31:14.543Z,14.68
2018-02-17T15:33:43.227Z,14.98
2018-02-17T15:36:11.960Z,16.00
2018-02-17T15:38:40.523Z,16.42
2018-02-17T15:41:08.857Z,17.75
2018-02-17T15:43:37.247Z,16.45
2018-02-17T15:46:05.555Z,17.98
2018-02-17T15:48:33.758Z,16.30
2018-02-17T15:51:01.850Z,17.10
2018-02-17T15:53:30.036Z,15.93
2018-02-17T15:55:58.116Z,17.10
2018-02-17T15:58:26.258Z,17.98
2018-02-17T16:00:54.440Z,17.23
2018-02-17T16:03:22.770Z,15.55
2018-02-17T16:05:50.899Z,16.20
2018-02-17T16:08:19.267Z,16.25
2018-02-17T16:10:47.639Z,15.38
2018-02-17T16:13:15.775Z,16.30
2018-02-17T16:15:43.942Z,16.00
2018-02-17T16:18:11.988Z,18.00
2018-02-17T16:20:40.082Z,16.70
2018-02-17T16:23:08.144Z,16.02
2018-02-17T16:25:36.261Z,17.90
2018-02-17T16:28:04.507Z,20.33
2018-02-17T16:30:32.616Z,15.98
2018-02-17T16:33:00.859Z,17.85
2018-02-17T16:35:29.041Z,17.73
2018-02-17T16:37:57.979Z,16.85
2018-02-17T16:40:26.199Z,17.05
2018-02-17T16:42:54.497Z,15.60
2018-02-17T16:45:22.568Z,15.57
2018-02-17T16:47:50.829Z,16.87
2018-02-17T16:50:19.121Z,15.18
2018-02-17T16:52:47.336Z,15.65
2018-02-17T16:55:15.719Z,15.18
2018-02-17T16:57:44.316Z,17.23
2018-02-17T17:00:12.293Z,15.43
2018-02-17T17:02:40.581Z,16.42
2018-02-17T17:05:08.583Z,16.50
2018-02-17T17:07:37.614Z,16.80
2018-02-17T17:10:05.738Z,16.50
2018-02-17T17:12:34.148Z,16.00
2018-02-17T17:15:02.787Z,16.80
2018-02-17T17:17:31.360Z,18.85
2018-02-17T17:19:59.410Z,17.02
2018-02-17T17:22:27.382Z,18.20
2018-02-17T17:24:55.576Z,18.65
2018-02-17T17:27:23.782Z,16.83
2018-02-17T17:29:51.862Z,18.15
2018-02-17T17:32:20.106Z,19.10
2018-02-17T17:34:48.452Z,18.12
2018-02-17T17:37:16.460Z,20.30
2018-02-17T17:39:44.568Z,19.60
2018-02-17T17:42:12.624Z,18.70
2018-02-17T17:44:40.683Z,20.33
2018-02-17T17:47:08.715Z,20.90
2018-02-17T17:49:37.003Z,18.62
2018-02-17T17:52:05.317Z,20.98
2018-02-17T17:54:33.935Z,21.40
2018-02-17T17:57:02.201Z,18.27
2018-02-17T17:59:30.298Z,20.67
2018-02-17T18:01:58.464Z,20.10
2018-02-17T18:04:26.790Z,18.20
2018-02-17T18:06:54.976Z,21.62
2018-02-17T18:09:23.277Z,19.98
2018-02-17T18:11:51.477Z,20.52
2018-02-17T18:14:19.725Z,21.23
2018-02-17T18:16:47.857Z,22.30
2018-02-17T18:19:16.672Z,20.42
2018-02-17T18:21:44.867Z,21.67
2018-02-17T18:24:12.952Z,20.67
2018-02-17T18:26:41.056Z,19.37
2018-02-17T18:29:09.137Z,19.62
2018-02-17T18:31:37.460Z,17.35
2018-02-17T18:34:05.540Z,20.08
2018-02-17T18:36:33.620Z,21.73
2018-02-17T18:39:01.959Z,21.95
2018-02-17T18:41:30.333Z,23.58
2018-02-17T18:43:58.620Z,22.42
2018-02-17T18:46:26.721Z,23.90
2018-02-17T18:48:54.805Z,22.30
2018-02-17T18:51:22.999Z,21.92
2018-02-17T18:53:51.080Z,22.35
2018-02-17T18:56:19.178Z,24.77
2018-02-17T18:58:47.279Z,28.55
2018-02-17T19:01:15.459Z,29.50
2018-02-17T19:03:43.660Z,29.52
2018-02-17T19:06:11.861Z,30.05
2018-02-17T19:08:40.461Z,30.45
2018-02-17T19:11:08.648Z,26.58
2018-02-17T19:13:36.849Z,26.75
2018-02-17T19:16:05.156Z,32.65
2018-02-17T19:18:33.548Z,27.77
2018-02-17T19:21:01.729Z,25.25
2018-02-17T19:23:29.837Z,23.75
2018-02-17T19:25:57.918Z,24.05
2018-02-17T19:28:26.016Z,24.90
2018-02-17T19:30:54.060Z,24.12
2018-02-17T19:33:22.292Z,23.90
2018-02-17T19:35:50.354Z,23.83
2018-02-17T19:38:18.530Z,23.65
2018-02-17T19:40:46.733Z,22.55
2018-02-17T19:43:14.983Z,22.40
2018-02-17T19:45:43.171Z,23.40
2018-02-17T19:48:11.184Z,23.08
2018-02-17T19:50:39.563Z,23.80
2018-02-17T19:53:07.763Z,21.55
2018-02-17T19:55:36.150Z,22.10
2018-02-17T19:58:04.451Z,22.45
2018-02-17T20:00:32.650Z,21.83
2018-02-17T20:03:00.938Z,25.92
2018-02-17T20:05:29.242Z,25.95
2018-02-17T20:07:57.636Z,26.85
2018-02-17T20:10:25.829Z,27.20
2018-02-17T20:12:53.815Z,25.90
2018-02-17T20:15:22.116Z,26.52
2018-02-17T20:17:50.314Z,26.17
2018-02-17T20:20:18.395Z,25.23
2018-02-17T20:22:46.493Z,26.55
2018-02-17T20:25:14.594Z,25.90
2018-02-17T20:27:42.874Z,25.52
2018-02-17T20:30:11.074Z,24.45
2018-02-17T20:32:39.263Z,23.67
2018-02-17T20:35:07.363Z,24.40
2018-02-17T20:37:35.457Z,24.73
2018-02-17T20:40:03.588Z,24.40
2018-02-17T20:42:31.644Z,22.92
2018-02-17T20:44:59.831Z,25.10
2018-02-17T20:47:28.135Z,26.02
2018-02-17T20:49:56.216Z,26.25
2018-02-17T20:52:24.310Z,26.35
2018-02-17T20:54:52.410Z,23.20
2018-02-17T20:57:20.582Z,24.37
2018-02-17T20:59:48.688Z,23.52
2018-02-17T21:02:16.897Z,25.98
2018-02-17T21:04:45.090Z,23.52
2018-02-17T21:07:13.379Z,24.87
2018-02-17T21:09:41.679Z,25.90
2018-02-17T21:12:09.860Z,24.80
2018-02-17T21:14:38.160Z,25.35
2018-02-17T21:17:06.259Z,24.92
2018-02-17T21:19:34.559Z,24.25
2018-02-17T21:22:02.739Z,25.35
2018-02-17T21:24:31.144Z,25.80
2018-02-17T21:27:00.158Z,26.75
2018-02-17T21:29:28.247Z,24.58
2018-02-17T21:31:56.437Z,26.98
2018-02-17T21:34:25.981Z,24.85
2018-02-17T21:36:54.168Z,24.92
2018-02-17T21:39:22.257Z,24.42
2018-02-17T21:41:50.457Z,23.98
2018-02-17T21:44:18.644Z,25.15
2018-02-17T21:46:46.824Z,24.35
2018-02-17T21:49:14.923Z,25.70
2018-02-17T21:51:43.126Z,25.20
2018-02-17T21:54:11.245Z,23.25
2018-02-17T21:56:39.405Z,24.83
2018-02-17T21:59:07.515Z,24.80
2018-02-17T22:01:35.895Z,24.83
2018-02-17T22:04:03.995Z,23.38
2018-02-17T22:06:32.097Z,25.50
2018-02-17T22:09:00.397Z,23.55
2018-02-17T22:11:28.578Z,25.80
2018-02-17T22:13:56.778Z,26.75
2018-02-17T22:16:24.959Z,25.88
2018-02-17T22:18:53.084Z,26.75
2018-02-17T22:21:21.240Z,27.92
2018-02-17T22:23:49.543Z,25.23
2018-02-17T22:26:17.841Z,25.88
2018-02-17T22:28:45.942Z,25.90
2018-02-17T22:31:14.225Z,27.00
2018-02-17T22:33:42.422Z,26.60
2018-02-17T22:36:10.642Z,27.48
2018-02-17T22:38:38.723Z,25.83
2018-02-17T22:41:06.923Z,26.45
2018-02-17T22:43:35.718Z,25.35
2018-02-17T22:46:03.915Z,24.67
2018-02-17T22:48:32.002Z,26.08
2018-02-17T22:51:00.174Z,25.83
2018-02-17T22:53:28.296Z,27.75
2018-02-17T22:55:56.494Z,26.27
2018-02-17T22:58:24.674Z,26.05
2018-02-17T23:00:52.887Z,26.55
2018-02-17T23:03:20.855Z,29.95
2018-02-17T23:05:49.159Z,29.20
2018-02-17T23:08:17.359Z,30.17
2018-02-17T23:10:45.455Z,31.52
2018-02-17T23:13:13.545Z,31.55
2018-02-17T23:15:41.743Z,30.65
2018-02-17T23:18:09.949Z,34.50
2018-02-17T23:20:38.223Z,46.05
2018-02-17T23:23:06.322Z,36.72
2018-02-17T23:25:35.441Z,29.80
2018-02-17T23:28:03.521Z,36.90
2018-02-17T23:30:31.723Z,39.50
2018-02-17T23:32:59.801Z,39.22
2018-02-17T23:35:28.004Z,31.65
2018-02-17T23:37:56.704Z,33.30
2018-02-17T23:40:24.804Z,33.03
2018-02-17T23:42:52.907Z,28.08
2018-02-17T23:45:21.016Z,28.23
2018-02-17T23:47:49.073Z,26.60
2018-02-17T23:50:17.169Z,29.40
2018-02-17T23:52:45.372Z,28.00
2018-02-17T23:55:13.562Z,29.08
2018-02-17T23:57:41.870Z,27.87
